YQT weather

Thunder Bay Airport
Thunder Bay, Ontario, Canada

Public forecast

Using degrees Celsius for public forecast. Weather courtesy of forecast.io.

Current aviation weather report (METAR) for Thunder Bay Airport

Retrieved 2019/10/22 00:26 UTC (58 seconds ago):

CYQT 220026Z 08027G36KT 2 1/2SM RA BR BKN008 OVC013 10/09 A2936 WS RWY07 RMK SF6SC2 SLP950 DENSITY ALT 900FT

Aviation forecast (TAF) for Thunder Bay Airport

Retrieved 2019-10-22 02:00 UTC (0 seconds ago):

TAF CYQT 220140Z 2202/2214 09025G40KT 6SM -RA BR OVC012 TEMPO 2202/2204 2SM -RA BR OVC007 BECMG 2202/2204 09015G25KT FM220400 09015G25KT 2SM -DZ BR OVC003 TEMPO 2204/2207 6SM -RA BR SCT003 OVC006 FM220700 15010G20KT 3SM -SHRA BR BKN007 OVC012 TEMPO 2207/2212 6SM -SHRA SCT007 OVC012 FM221200 15010KT 6SM -SHRA BR BKN010 OVC020 RMK NXT FCST BY 220800Z